Baltimore, MD (21239)

8:22 PM EDT on August 30, 2014 (GMT -0400)
Lauraville | Change Station
CLOSE
Current Station
Personal Weather Station
Location: Baltimore, MD
Elevation: 289 ft
Nearby Weather Stations

Elev 289 ft 39.35 °N, 76.57 °W | Updated 0 second ago

Overcast
Overcast
77.4 °F
Feels Like 79 °F
N
0.0
Wind Variable Wind from SE
Gusts 0.0 mph

Today
High -- | Low -- °F
--% Chance of Precip.
Yesterday
High -- | Low -- °F
Precip. -- in
6:32 AM 7:40 PM
Waxing Crescent, 26% visible
Pressure 30.12 in
Visibility 10.0 miles
Clouds Mostly Cloudy 4600 ft
Overcast 6000 ft
Heat Index 79 °F
Dew Point 72 °F
Humidity 82%
Rainfall 0.00 in
Snow Depth Not available.
UV 0 out of 12
Pollen 9.00 out of 12
Air Quality Not available.
Flu Activity Not available.
METAR KBWI 302354Z 14003KT 10SM BKN046 OVC060 25/20 A3012 RMK AO2 SLP198 T02500200 10283 20250 56007

More Conditions Fewer Conditions

Pressure 30.12 in
Visibility 10.0 miles
Clouds Mostly Cloudy 4600 ft
Overcast 6000 ft
Heat Index 79 °F
Dew Point 72 °F
Humidity 82%
Rainfall 0.00 in
Snow Depth Not available.
UV 0 out of 12
Pollen 9.00 out of 12
Air Quality Not available.
Flu Activity Not available.
METAR KBWI 302354Z 14003KT 10SM BKN046 OVC060 25/20 A3012 RMK AO2 SLP198 T02500200 10283 20250 56007

More Conditions Fewer Conditions

10-Day Weather Forecast

Almanac

Astronomy

Aug. 30, 2014 Rise Set
Actual Time 6:32 AM EDT 7:40 PM EDT
Civil Twilight 6:05 AM EDT 8:07 PM EDT
Nautical Twilight 5:32 AM EDT 8:40 PM EDT
Astronomical Twilight 4:57 AM EDT 9:14 PM EDT
Moon 11:16 AM EDT (8/30) 10:14 PM EDT (8/30)
Length of Visible Light 14h 02m
Length of Day
13h 07m
Tomorrow will be 2m 28s shorter.
Waxing Crescent, 26% of the Moon is Illuminated
Today
Waxing Crescent
Sep 2
First Quarter
Sep 8
Full
Sep 15
Last Quarter
Sep 24
New

Today's Extremes

State Highs State Lows

Community

WunderPhotos

Upload Photos

1,748,704 photos uploaded!

Nearby

Snow Depth

Station Depth Elevation
No new snow has been reported.

Earthquake Activity

City Distance Mag. Time & Date
No recent earthquake activity has been reported nearby.
Minimum magnitude displayed is 2.5.

Coastal Water Temperatures

Place Temperature
Baltimore, MD 80.1 °F
Tolchester Beach, MD 78.1 °F
Washington, DC 79.0 °F

Nearby Weather Stations